Huvudsida
METAR-TAF:

METAR-TAF

Flygplatser :

Trollhättan-Vänersborgs flygplats

Trollhättan-Vänersborg, Sverige

latitud: 58-19N, longitud: 012-21E, höjd: 41 m

Aktuellt väderrapport

Denna rapport gjordes för 34 minuter sedan, klockan 22:50 UTC
Vind 13 kt från syd/sydväst
Temperatur 7°C
Fuktighet 93%
Tryck 1020 hPa
Sikt: 4300 m
lätt duggregn

METAR: ESGT 222250Z AUTO 21013KT 4300 -DZ OVC005/// 07/06 Q1020

Tid: 00:24 (23:24 UTC)

Väderprognos

Denna rapport gjordes för 5 timmar och 54 minuter sedan, klockan 17:30 UTC
Prognos gäller från 22 kl. 18 UTC till 22 kl. 20 UTC
Vind 15 kt från syd/sydväst
Sikt: 9000 m
Brutna moln på en höjd av 900 ft
Temporärt
från 22 kl. 18 UTC till 22 kl. 20 UTC
Sikt: 2000 m
Brutna moln på en höjd av 400 ft
fuktdis

TAF: ESGT 221730Z 2218/2220 21015KT 9000 BKN009 TEMPO 2218/2220 2000 BR BKN004

Aktuella väderrapporter och prognoser från 4000 flygplatser (METAR- och TAF-rapporter).

De tillgängliga stationerna syns som gula och röda prickar på kartan.

För musen över prickarna för att se namnen på stationerna.

Klicka sedan för att få väderrapporter och prognoser.

För att ändra kartan: Klicka på de gröna knapparna med ett svart kors på för att zooma in; den gröna knappen med ett streck på för att zooma ut; eller på de gröna pilarna för angränsande kartor.


METAR-TAF: